createdAt,value
2017-09-13T00:00:34.422Z,24.2
2017-09-13T00:01:32.404Z,24.2
2017-09-13T00:02:31.996Z,24.2
2017-09-13T00:03:33.096Z,24.2
2017-09-13T00:04:34.954Z,24.1
2017-09-13T00:05:36.868Z,24.2
2017-09-13T00:06:37.127Z,24.2
2017-09-13T00:07:35.002Z,24.2
2017-09-13T00:08:36.930Z,24.1
2017-09-13T00:09:35.514Z,24.1
2017-09-13T00:10:37.294Z,24.1
2017-09-13T00:11:32.908Z,24.1
2017-09-13T00:12:32.409Z,24.1
2017-09-13T00:13:32.610Z,24.1
2017-09-13T00:14:33.253Z,24.1
2017-09-13T00:15:37.306Z,24.1
2017-09-13T00:16:33.293Z,24.1
2017-09-13T00:17:35.222Z,24.1
2017-09-13T00:18:37.452Z,24.1
2017-09-13T00:19:38.719Z,24.1
2017-09-13T00:20:33.469Z,24.1
2017-09-13T00:21:35.400Z,24.1
2017-09-13T00:22:35.446Z,24.1
2017-09-13T00:23:32.865Z,24.1
2017-09-13T00:24:33.184Z,24.1
2017-09-13T00:25:33.276Z,24.1
2017-09-13T00:26:38.084Z,24.1
2017-09-13T00:27:37.853Z,24.1
2017-09-13T00:28:33.195Z,24.1
2017-09-13T00:29:32.920Z,24.1
2017-09-13T00:30:38.296Z,24.1
2017-09-13T00:31:33.333Z,24
2017-09-13T00:32:33.813Z,24.1
2017-09-13T00:33:38.205Z,24.1
2017-09-13T00:34:38.477Z,24.1
2017-09-13T00:35:33.487Z,24.1
2017-09-13T00:36:33.237Z,24
2017-09-13T00:37:33.609Z,24.1
2017-09-13T00:38:38.580Z,24.1
2017-09-13T00:39:33.567Z,24.1
2017-09-13T00:40:36.281Z,24.1
2017-09-13T00:41:33.461Z,24.1
2017-09-13T00:42:33.508Z,24.1
2017-09-13T00:43:34.285Z,24
2017-09-13T00:44:36.440Z,24
2017-09-13T00:45:33.633Z,24
2017-09-13T00:46:33.989Z,24
2017-09-13T00:47:33.980Z,24
2017-09-13T00:48:37.645Z,24
2017-09-13T00:49:37.334Z,24
2017-09-13T00:50:34.289Z,24
2017-09-13T00:51:34.365Z,24
2017-09-13T00:52:37.227Z,24
2017-09-13T00:53:37.284Z,24
2017-09-13T00:54:39.439Z,24
2017-09-13T00:55:39.483Z,24
2017-09-13T00:56:37.413Z,24
2017-09-13T00:57:37.475Z,24
2017-09-13T00:58:34.568Z,24
2017-09-13T00:59:34.394Z,24
2017-09-13T01:00:34.462Z,24
2017-09-13T01:01:34.802Z,24
2017-09-13T01:02:39.571Z,24
2017-09-13T01:03:34.650Z,24
2017-09-13T01:04:39.687Z,24
2017-09-13T01:05:37.924Z,24
2017-09-13T01:06:35.112Z,24
2017-09-13T01:07:37.994Z,23.9
2017-09-13T01:08:34.982Z,24
2017-09-13T01:09:34.998Z,24
2017-09-13T01:10:35.024Z,24
2017-09-13T01:11:35.136Z,24
2017-09-13T01:12:40.972Z,23.9
2017-09-13T01:13:40.770Z,23.9
2017-09-13T01:14:37.068Z,23.9
2017-09-13T01:15:36.912Z,23.9
2017-09-13T01:16:36.110Z,23.9
2017-09-13T01:17:35.826Z,23.9
2017-09-13T01:18:37.963Z,23.9
2017-09-13T01:19:35.895Z,23.9
2017-09-13T01:20:36.718Z,23.9
2017-09-13T01:21:35.658Z,23.9
2017-09-13T01:22:35.776Z,23.9
2017-09-13T01:23:39.787Z,23.9
2017-09-13T01:24:35.952Z,23.9
2017-09-13T01:25:39.794Z,23.9
2017-09-13T01:26:41.963Z,23.9
2017-09-13T01:27:37.688Z,23.9
2017-09-13T01:28:36.125Z,23.9
2017-09-13T01:29:46.666Z,23.9
2017-09-13T01:30:42.258Z,23.9
2017-09-13T01:31:41.585Z,23.9
2017-09-13T01:32:37.007Z,23.9
2017-09-13T01:33:37.330Z,23.9
2017-09-13T01:34:40.140Z,23.8
2017-09-13T01:35:39.102Z,23.9
2017-09-13T01:36:40.103Z,23.9
2017-09-13T01:37:41.970Z,23.9
2017-09-13T01:38:39.853Z,23.9
2017-09-13T01:39:36.846Z,23.9
2017-09-13T01:40:38.562Z,23.9
2017-09-13T01:41:42.658Z,23.9
2017-09-13T01:42:38.433Z,23.9
2017-09-13T01:43:37.283Z,23.9
2017-09-13T01:44:36.733Z,23.9
2017-09-13T01:45:40.800Z,23.9
2017-09-13T01:46:43.431Z,23.9
2017-09-13T01:47:40.518Z,23.9
2017-09-13T01:48:37.349Z,23.9
2017-09-13T01:49:41.608Z,23.9
2017-09-13T01:50:40.984Z,23.8
2017-09-13T01:51:42.120Z,23.9
2017-09-13T01:52:42.250Z,23.9
2017-09-13T01:53:42.497Z,23.9
2017-09-13T01:54:38.659Z,23.9
2017-09-13T01:55:38.024Z,23.9
2017-09-13T01:56:38.032Z,23.8
2017-09-13T01:57:37.506Z,23.9
2017-09-13T01:58:41.244Z,23.9
2017-09-13T01:59:38.088Z,23.9
2017-09-13T02:00:37.746Z,23.8
2017-09-13T02:01:38.058Z,23.9
2017-09-13T02:02:37.586Z,23.9
2017-09-13T02:03:37.526Z,23.9
2017-09-13T02:04:37.596Z,23.9
2017-09-13T02:05:42.677Z,23.9
2017-09-13T02:06:44.340Z,23.9
2017-09-13T02:07:39.192Z,23.9
2017-09-13T02:08:38.824Z,23.9
2017-09-13T02:09:40.791Z,23.9
2017-09-13T02:10:41.086Z,23.9
2017-09-13T02:11:39.298Z,23.9
2017-09-13T02:12:43.000Z,23.9
2017-09-13T02:13:43.622Z,23.9
2017-09-13T02:14:43.118Z,23.9
2017-09-13T02:15:41.092Z,23.9
2017-09-13T02:16:43.359Z,23.9
2017-09-13T02:17:39.469Z,23.9
2017-09-13T02:18:43.758Z,23.9
2017-09-13T02:19:38.761Z,23.9
2017-09-13T02:20:41.379Z,23.8
2017-09-13T02:21:43.848Z,23.8
2017-09-13T02:22:38.620Z,23.8
2017-09-13T02:23:41.848Z,23.8
2017-09-13T02:24:39.124Z,23.8
2017-09-13T02:25:39.416Z,23.8
2017-09-13T02:26:42.443Z,23.8
2017-09-13T02:27:38.956Z,23.7
2017-09-13T02:28:42.077Z,23.8
2017-09-13T02:29:44.067Z,23.7
2017-09-13T02:30:42.244Z,23.7
2017-09-13T02:31:42.665Z,23.7
2017-09-13T02:32:42.365Z,23.7
2017-09-13T02:33:42.189Z,23.7
2017-09-13T02:34:44.687Z,23.7
2017-09-13T02:35:42.383Z,23.7
2017-09-13T02:36:40.575Z,23.7
2017-09-13T02:37:39.781Z,23.7
2017-09-13T02:38:40.516Z,23.7
2017-09-13T02:39:42.801Z,23.6
2017-09-13T02:40:40.339Z,23.6
2017-09-13T02:41:39.649Z,23.6
2017-09-13T02:42:44.753Z,23.6
2017-09-13T02:43:39.978Z,23.5
2017-09-13T02:44:39.649Z,23.5
2017-09-13T02:45:42.609Z,23.5
2017-09-13T02:46:39.774Z,23.5
2017-09-13T02:47:44.833Z,23.5
2017-09-13T02:48:45.179Z,23.5
2017-09-13T02:49:45.469Z,23.5
2017-09-13T02:50:45.271Z,23.5
2017-09-13T02:51:40.564Z,23.5
2017-09-13T02:52:41.970Z,23.5
2017-09-13T02:53:43.338Z,23.4
2017-09-13T02:54:40.256Z,23.5
2017-09-13T02:55:40.582Z,23.4
2017-09-13T02:56:40.326Z,23.5
2017-09-13T02:57:40.667Z,23.4
2017-09-13T02:58:45.442Z,23.4
2017-09-13T02:59:40.694Z,23.4
2017-09-13T03:00:40.695Z,23.4
2017-09-13T03:01:41.005Z,23.4
2017-09-13T03:02:40.427Z,23.4
2017-09-13T03:03:42.329Z,23.4
2017-09-13T03:04:40.493Z,23.4
2017-09-13T03:05:40.879Z,23.4
2017-09-13T03:06:40.618Z,23.4
2017-09-13T03:07:41.171Z,23.4
2017-09-13T03:08:43.541Z,23.4
2017-09-13T03:09:40.985Z,23.4
2017-09-13T03:10:43.952Z,23.4
2017-09-13T03:11:44.023Z,23.4
2017-09-13T03:12:40.921Z,23.4
2017-09-13T03:13:41.537Z,23.4
2017-09-13T03:14:40.982Z,23.4
2017-09-13T03:15:43.894Z,23.4
2017-09-13T03:16:41.077Z,23.4
2017-09-13T03:17:46.428Z,23.4
2017-09-13T03:18:41.119Z,23.4
2017-09-13T03:19:42.682Z,23.4
2017-09-13T03:20:41.570Z,23.4
2017-09-13T03:21:44.479Z,23.4
2017-09-13T03:22:41.362Z,23.4
2017-09-13T03:23:41.443Z,23.3
2017-09-13T03:24:41.656Z,23.4
2017-09-13T03:25:41.777Z,23.3
2017-09-13T03:26:41.518Z,23.3
2017-09-13T03:27:50.726Z,23.3
2017-09-13T03:28:46.751Z,23.3
2017-09-13T03:29:44.595Z,23.3
2017-09-13T03:30:47.031Z,23.3
2017-09-13T03:31:42.064Z,23.3
2017-09-13T03:32:45.044Z,23.3
2017-09-13T03:33:41.957Z,23.2
2017-09-13T03:34:44.826Z,23.2
2017-09-13T03:35:44.899Z,23.2
2017-09-13T03:36:42.355Z,23.2
2017-09-13T03:37:45.582Z,23.2
2017-09-13T03:38:44.999Z,23.2
2017-09-13T03:39:42.145Z,23.2
2017-09-13T03:40:42.512Z,23.2
2017-09-13T03:41:42.493Z,23.2
2017-09-13T03:42:45.512Z,23.2
2017-09-13T03:43:46.042Z,23.2
2017-09-13T03:44:47.494Z,23.2
2017-09-13T03:45:42.457Z,23.2
2017-09-13T03:46:42.857Z,23.1
2017-09-13T03:47:42.926Z,23.2
2017-09-13T03:48:42.951Z,23.1
2017-09-13T03:49:43.071Z,23.1
2017-09-13T03:50:45.888Z,23.1
2017-09-13T03:51:42.704Z,23.1
2017-09-13T03:52:43.065Z,23.1
2017-09-13T03:53:43.184Z,23.1
2017-09-13T03:54:43.244Z,23.1
2017-09-13T03:55:46.360Z,23.1
2017-09-13T03:56:45.882Z,23
2017-09-13T03:57:46.207Z,23
2017-09-13T03:58:48.165Z,23
2017-09-13T03:59:43.384Z,23
2017-09-13T04:00:43.413Z,23
2017-09-13T04:01:46.235Z,23
2017-09-13T04:02:43.519Z,23
2017-09-13T04:03:48.303Z,23
2017-09-13T04:04:43.355Z,23
2017-09-13T04:05:43.393Z,23
2017-09-13T04:06:46.575Z,22.9
2017-09-13T04:07:43.708Z,23
2017-09-13T04:08:46.284Z,22.9
2017-09-13T04:09:46.692Z,23
2017-09-13T04:10:46.392Z,23
2017-09-13T04:11:46.407Z,22.9
2017-09-13T04:12:43.575Z,22.9
2017-09-13T04:13:43.879Z,22.9
2017-09-13T04:14:43.623Z,22.9
2017-09-13T04:15:48.710Z,22.8
2017-09-13T04:16:49.059Z,22.8
2017-09-13T04:17:49.085Z,22.8
2017-09-13T04:18:47.002Z,22.8
2017-09-13T04:19:47.050Z,22.8
2017-09-13T04:20:43.898Z,22.8
2017-09-13T04:21:49.241Z,22.8
2017-09-13T04:22:44.276Z,22.8
2017-09-13T04:23:46.878Z,22.8
2017-09-13T04:24:44.092Z,22.8
2017-09-13T04:25:44.431Z,22.8
2017-09-13T04:26:49.474Z,22.8
2017-09-13T04:27:44.530Z,22.8
2017-09-13T04:28:47.109Z,22.8
2017-09-13T04:29:44.349Z,22.8
2017-09-13T04:30:49.704Z,22.8
2017-09-13T04:31:44.800Z,22.8
2017-09-13T04:32:47.708Z,22.8
2017-09-13T04:33:44.878Z,22.8
2017-09-13T04:34:44.579Z,22.8
2017-09-13T04:35:49.849Z,22.7
2017-09-13T04:36:44.704Z,22.7
2017-09-13T04:37:49.121Z,22.6
2017-09-13T04:38:55.369Z,22.7
2017-09-13T04:39:45.156Z,22.7
2017-09-13T04:40:49.090Z,22.7
2017-09-13T04:41:44.916Z,22.7
2017-09-13T04:42:47.846Z,22.7
2017-09-13T04:43:45.329Z,22.6
2017-09-13T04:44:53.152Z,22.6
2017-09-13T04:45:48.333Z,22.6
2017-09-13T04:46:48.328Z,22.6
2017-09-13T04:47:48.404Z,22.6
2017-09-13T04:48:48.140Z,22.6
2017-09-13T04:49:45.668Z,22.6
2017-09-13T04:50:46.198Z,22.6
2017-09-13T04:51:48.246Z,22.6
2017-09-13T04:52:45.492Z,22.6
2017-09-13T04:53:48.418Z,22.6
2017-09-13T04:54:45.859Z,22.6
2017-09-13T04:55:45.904Z,22.6
2017-09-13T04:56:46.557Z,22.6
2017-09-13T04:57:45.784Z,22.6
2017-09-13T04:58:45.813Z,22.6
2017-09-13T04:59:46.083Z,22.6
2017-09-13T05:00:50.844Z,22.6
2017-09-13T05:01:49.781Z,22.6
2017-09-13T05:02:52.807Z,22.7
2017-09-13T05:03:47.332Z,22.7
2017-09-13T05:04:51.284Z,22.7
2017-09-13T05:05:48.889Z,22.7
2017-09-13T05:06:46.383Z,22.7
2017-09-13T05:07:49.526Z,22.7
2017-09-13T05:08:51.500Z,22.6
2017-09-13T05:09:51.291Z,22.6
2017-09-13T05:10:46.258Z,22.6
2017-09-13T05:11:51.339Z,22.6
2017-09-13T05:12:52.349Z,22.6
2017-09-13T05:13:49.639Z,22.6
2017-09-13T05:14:46.904Z,22.6
2017-09-13T05:15:51.968Z,22.6
2017-09-13T05:16:48.563Z,22.6
2017-09-13T05:17:46.715Z,22.6
2017-09-13T05:18:46.782Z,22.6
2017-09-13T05:19:47.101Z,22.6
2017-09-13T05:20:47.791Z,22.6
2017-09-13T05:21:58.409Z,22.6
2017-09-13T05:22:55.701Z,22.6
2017-09-13T05:23:52.294Z,22.6
2017-09-13T05:24:47.748Z,22.5
2017-09-13T05:25:52.731Z,22.6
2017-09-13T05:26:50.057Z,22.6
2017-09-13T05:27:47.505Z,22.6
2017-09-13T05:28:48.358Z,22.6
2017-09-13T05:29:50.521Z,22.6
2017-09-13T05:30:47.643Z,22.5
2017-09-13T05:31:52.732Z,22.6
2017-09-13T05:32:47.510Z,22.6
2017-09-13T05:33:47.786Z,22.6
2017-09-13T05:34:47.918Z,22.6
2017-09-13T05:35:47.687Z,22.6
2017-09-13T05:36:47.932Z,22.5
2017-09-13T05:37:52.998Z,22.5
2017-09-13T05:38:47.873Z,22.5
2017-09-13T05:39:48.495Z,22.5
2017-09-13T05:40:48.225Z,22.5
2017-09-13T05:41:53.284Z,22.5
2017-09-13T05:42:48.115Z,22.5
2017-09-13T05:43:48.769Z,22.5
2017-09-13T05:44:51.103Z,22.5
2017-09-13T05:45:48.300Z,22.6
2017-09-13T05:46:51.089Z,22.6
2017-09-13T05:47:55.108Z,22.6
2017-09-13T05:48:55.552Z,22.6
2017-09-13T05:49:49.369Z,22.6
2017-09-13T05:50:52.158Z,22.6
2017-09-13T05:52:01.900Z,22.6
2017-09-13T05:53:00.345Z,22.6
2017-09-13T05:53:48.842Z,22.5
2017-09-13T05:54:49.172Z,22.6
2017-09-13T05:55:54.520Z,22.5
2017-09-13T05:56:48.958Z,22.5
2017-09-13T05:57:48.988Z,22.5
2017-09-13T05:58:51.992Z,22.4
2017-09-13T05:59:49.221Z,22.4
2017-09-13T06:00:52.211Z,22.4
2017-09-13T06:01:54.935Z,22.4
2017-09-13T06:02:54.688Z,22.4
2017-09-13T06:03:49.552Z,22.5
2017-09-13T06:04:52.971Z,22.5
2017-09-13T06:05:55.115Z,22.5
2017-09-13T06:06:50.131Z,22.5
2017-09-13T06:07:51.607Z,22.5
2017-09-13T06:08:50.045Z,22.5
2017-09-13T06:09:50.614Z,22.5
2017-09-13T06:10:49.846Z,22.5
2017-09-13T06:11:53.132Z,22.5
2017-09-13T06:12:53.114Z,22.6
2017-09-13T06:13:50.105Z,22.6
2017-09-13T06:14:50.392Z,22.6
2017-09-13T06:15:50.455Z,22.6
2017-09-13T06:16:53.344Z,22.6
2017-09-13T06:17:50.185Z,22.6
2017-09-13T06:18:50.504Z,22.5
2017-09-13T06:19:53.479Z,22.5
2017-09-13T06:20:51.588Z,22.5
2017-09-13T06:21:50.650Z,22.5
2017-09-13T06:22:55.735Z,22.5
2017-09-13T06:23:50.602Z,22.5
2017-09-13T06:24:52.583Z,22.6
2017-09-13T06:26:05.735Z,22.6
2017-09-13T06:26:59.624Z,22.6
2017-09-13T06:27:54.846Z,22.6
2017-09-13T06:28:50.950Z,22.6
2017-09-13T06:29:52.921Z,22.6
2017-09-13T06:30:51.291Z,22.6
2017-09-13T06:31:54.622Z,22.5
2017-09-13T06:32:56.033Z,22.6
2017-09-13T06:33:55.493Z,22.6
2017-09-13T06:34:54.564Z,22.6
2017-09-13T06:35:51.427Z,22.6
2017-09-13T06:36:51.405Z,22.6
2017-09-13T06:37:52.822Z,22.6
2017-09-13T06:38:51.264Z,22.6
2017-09-13T06:39:54.371Z,22.6
2017-09-13T06:40:54.469Z,22.6
2017-09-13T06:41:56.578Z,22.6
2017-09-13T06:42:57.310Z,22.6
2017-09-13T06:43:56.662Z,22.6
2017-09-13T06:44:52.337Z,22.6
2017-09-13T06:45:52.275Z,22.6
2017-09-13T06:46:54.874Z,22.6
2017-09-13T06:47:58.117Z,22.6
2017-09-13T06:48:54.977Z,22.6
2017-09-13T06:49:52.551Z,22.7
2017-09-13T06:50:54.901Z,22.7
2017-09-13T06:51:55.379Z,22.8
2017-09-13T06:52:57.124Z,22.8
2017-09-13T06:53:57.489Z,22.8
2017-09-13T06:54:52.051Z,22.8
2017-09-13T06:55:53.890Z,22.9
2017-09-13T06:56:54.843Z,22.9
2017-09-13T06:57:54.319Z,22.9
2017-09-13T06:58:57.586Z,23
2017-09-13T06:59:52.165Z,23
2017-09-13T07:00:55.160Z,23
2017-09-13T07:01:52.845Z,23
2017-09-13T07:02:52.621Z,23
2017-09-13T07:03:52.325Z,23
2017-09-13T07:04:52.323Z,23
2017-09-13T07:06:00.103Z,23
2017-09-13T07:06:56.023Z,23.1
2017-09-13T07:07:53.067Z,23.1
2017-09-13T07:08:53.650Z,23.1
2017-09-13T07:09:55.753Z,23.1
2017-09-13T07:10:55.599Z,23.1
2017-09-13T07:11:55.527Z,23.1
2017-09-13T07:12:59.180Z,23.2
2017-09-13T07:13:56.349Z,23.2
2017-09-13T07:14:55.914Z,23.3
2017-09-13T07:15:53.263Z,23.4
2017-09-13T07:16:56.153Z,23.4
2017-09-13T07:17:56.369Z,23.5
2017-09-13T07:18:53.637Z,23.5
2017-09-13T07:19:57.463Z,23.5
2017-09-13T07:20:58.193Z,23.5
2017-09-13T07:21:54.253Z,23.6
2017-09-13T07:22:54.486Z,23.6
2017-09-13T07:23:59.980Z,23.6
2017-09-13T07:25:01.826Z,23.6
2017-09-13T07:25:57.979Z,23.6
2017-09-13T07:27:16.979Z,23.7
2017-09-13T07:27:58.239Z,23.6
2017-09-13T07:28:59.120Z,23.7
2017-09-13T07:29:55.504Z,23.7
2017-09-13T07:30:58.601Z,23.7
2017-09-13T07:31:59.889Z,23.7
2017-09-13T07:32:58.215Z,23.7
2017-09-13T07:33:58.848Z,23.7
2017-09-13T07:34:58.056Z,23.7
2017-09-13T07:35:57.479Z,23.7
2017-09-13T07:37:00.000Z,23.8
2017-09-13T07:38:00.350Z,23.8
2017-09-13T07:38:59.767Z,23.9
2017-09-13T07:39:56.913Z,23.9
2017-09-13T07:40:59.653Z,23.9
2017-09-13T07:41:54.146Z,23.9
2017-09-13T07:42:57.648Z,23.9
2017-09-13T07:43:58.063Z,23.9
2017-09-13T07:44:54.263Z,23.9
2017-09-13T07:45:55.388Z,23.9
2017-09-13T07:47:00.677Z,23.9
2017-09-13T07:47:54.805Z,23.9
2017-09-13T07:48:54.595Z,23.9
2017-09-13T07:49:58.491Z,23.9
2017-09-13T07:51:01.532Z,23.9
2017-09-13T07:51:57.924Z,23.9
2017-09-13T07:53:01.168Z,23.9
2017-09-13T07:54:00.429Z,23.9
2017-09-13T07:54:56.034Z,23.9
2017-09-13T07:55:55.639Z,23.9
2017-09-13T07:56:56.803Z,23.9
2017-09-13T07:58:00.090Z,24
2017-09-13T07:58:56.360Z,24
2017-09-13T07:59:58.225Z,24
2017-09-13T08:01:02.003Z,24.1
2017-09-13T08:01:58.708Z,24.1
2017-09-13T08:03:03.106Z,24.1
2017-09-13T08:03:56.147Z,24.1
2017-09-13T08:04:59.051Z,24.1
2017-09-13T08:05:55.523Z,24.1
2017-09-13T08:06:56.073Z,24
2017-09-13T08:11:50.239Z,24
2017-09-13T08:12:46.495Z,23.9
2017-09-13T08:13:46.174Z,23.9
2017-09-13T08:14:52.116Z,23.9
2017-09-13T08:15:50.090Z,23.9
2017-09-13T08:16:49.292Z,23.7
2017-09-13T08:17:51.160Z,24
2017-09-13T08:18:46.220Z,24
2017-09-13T08:19:52.406Z,24
2017-09-13T08:20:46.265Z,24
2017-09-13T08:21:47.682Z,24
2017-09-13T08:22:53.045Z,24
2017-09-13T08:23:48.052Z,24
2017-09-13T08:24:46.708Z,24
2017-09-13T08:25:48.118Z,24
2017-09-13T08:26:49.728Z,24
2017-09-13T08:27:51.597Z,24
2017-09-13T08:28:50.029Z,24
2017-09-13T08:29:52.265Z,24
2017-09-13T08:30:47.728Z,24
2017-09-13T08:31:47.529Z,24
2017-09-13T08:32:54.817Z,24.1
2017-09-13T08:33:46.981Z,24.1
2017-09-13T08:34:47.547Z,24.1
2017-09-13T08:39:27.397Z,24.1
2017-09-13T08:40:28.102Z,24.1
2017-09-13T08:41:24.917Z,24.1
2017-09-13T08:42:23.286Z,24.1
2017-09-13T08:43:23.994Z,24.1
2017-09-13T08:44:25.086Z,24.2
2017-09-13T08:45:26.473Z,24.2
2017-09-13T08:46:24.375Z,24.3
2017-09-13T08:47:28.120Z,24.3
2017-09-13T08:48:27.724Z,24.4
2017-09-13T08:49:24.074Z,24.5
2017-09-13T08:50:25.121Z,24.6
2017-09-13T08:51:30.589Z,24.7
2017-09-13T08:52:26.683Z,24.7
2017-09-13T08:53:24.128Z,24.8
2017-09-13T08:54:26.757Z,24.9
2017-09-13T08:55:25.466Z,25
2017-09-13T08:56:27.043Z,25
2017-09-13T08:57:26.929Z,25
2017-09-13T08:58:29.936Z,25
2017-09-13T08:59:25.741Z,25.1
2017-09-13T09:00:24.441Z,25.1
2017-09-13T09:01:30.840Z,25.1
2017-09-13T09:02:28.476Z,25.1
2017-09-13T09:03:24.606Z,25.1
2017-09-13T09:04:24.132Z,25.1
2017-09-13T09:05:24.991Z,25
2017-09-13T09:06:30.144Z,25.1
2017-09-13T09:07:24.193Z,25.1
2017-09-13T09:08:25.497Z,25.1
2017-09-13T09:09:27.365Z,25.1
2017-09-13T09:10:30.315Z,25.1
2017-09-13T09:11:24.516Z,25.1
2017-09-13T09:12:30.149Z,25.1
2017-09-13T09:13:30.101Z,25.1
2017-09-13T09:14:31.228Z,25.1
2017-09-13T09:15:24.616Z,25.1
2017-09-13T09:16:28.633Z,25.1
2017-09-13T09:17:28.439Z,25.1
2017-09-13T09:18:32.178Z,25.1
2017-09-13T09:19:29.352Z,25.1
2017-09-13T09:20:33.120Z,25.1
2017-09-13T09:21:26.496Z,25.1
2017-09-13T09:22:28.893Z,25.1
2017-09-13T09:23:32.626Z,25.2
2017-09-13T09:24:26.757Z,25.2
2017-09-13T09:25:30.469Z,25.2
2017-09-13T09:26:32.100Z,25.2
2017-09-13T09:27:26.832Z,25.2
2017-09-13T09:28:31.980Z,25.3
2017-09-13T09:29:28.539Z,25.3
2017-09-13T09:30:26.329Z,25.3
2017-09-13T09:31:33.441Z,25.3
2017-09-13T09:32:26.603Z,25.3
2017-09-13T09:33:28.256Z,25.3
2017-09-13T09:34:28.911Z,25.3
2017-09-13T09:35:30.411Z,25.4
2017-09-13T09:36:31.245Z,25.4
2017-09-13T09:37:28.913Z,25.4
2017-09-13T09:38:32.547Z,25.4
2017-09-13T09:39:27.700Z,25.3
2017-09-13T09:40:29.113Z,25.4
2017-09-13T09:41:27.885Z,25.4
2017-09-13T09:42:27.226Z,25.5
2017-09-13T09:43:34.354Z,25.5
2017-09-13T09:44:29.079Z,25.6
2017-09-13T09:45:27.649Z,25.6
2017-09-13T09:46:30.778Z,25.6
2017-09-13T09:47:28.866Z,25.7
2017-09-13T09:48:27.548Z,25.8
2017-09-13T09:49:28.166Z,25.8
2017-09-13T09:50:27.653Z,25.8
2017-09-13T09:51:34.266Z,25.8
2017-09-13T09:52:30.113Z,25.9
2017-09-13T09:53:27.314Z,25.9
2017-09-13T09:54:29.212Z,25.9
2017-09-13T09:55:29.838Z,25.9
2017-09-13T09:56:27.015Z,25.9
2017-09-13T09:57:26.734Z,25.9
2017-09-13T09:58:36.565Z,26
2017-09-13T09:59:26.765Z,26
2017-09-13T10:00:31.894Z,26
2017-09-13T10:01:32.657Z,26
2017-09-13T10:02:33.256Z,26
2017-09-13T10:03:37.705Z,26
2017-09-13T10:04:30.210Z,26
2017-09-13T10:05:27.045Z,26
2017-09-13T10:06:31.884Z,26
2017-09-13T10:07:32.006Z,26
2017-09-13T10:08:32.392Z,26.1
2017-09-13T10:09:33.048Z,26.1
2017-09-13T10:10:31.472Z,26.1
2017-09-13T10:11:27.963Z,26.1
2017-09-13T10:12:33.200Z,26.1
2017-09-13T10:13:33.851Z,26.1
2017-09-13T10:14:28.621Z,26.1
2017-09-13T10:15:32.741Z,26.1
2017-09-13T10:16:33.645Z,26.1
2017-09-13T10:17:30.083Z,26.1
2017-09-13T10:18:31.192Z,26.1
2017-09-13T10:19:33.175Z,26.1
2017-09-13T10:20:29.566Z,26.1
2017-09-13T10:21:31.586Z,26.2
2017-09-13T10:22:34.055Z,26.2
2017-09-13T10:23:28.111Z,26.2
2017-09-13T10:24:29.204Z,26.2
2017-09-13T10:25:28.572Z,26.2
2017-09-13T10:26:35.027Z,26.2
2017-09-13T10:27:27.853Z,26.2
2017-09-13T10:28:34.203Z,26.3
2017-09-13T10:29:32.568Z,26.3
2017-09-13T10:30:28.156Z,26.4
2017-09-13T10:31:28.068Z,26.4
2017-09-13T10:32:31.303Z,26.4
2017-09-13T10:33:31.332Z,26.4
2017-09-13T10:34:31.494Z,26.4
2017-09-13T10:35:28.941Z,26.5
2017-09-13T10:36:28.472Z,26.5
2017-09-13T10:37:33.505Z,26.5
2017-09-13T10:38:29.437Z,26.5
2017-09-13T10:39:33.994Z,26.5
2017-09-13T10:40:33.030Z,26.5
2017-09-13T10:41:33.548Z,26.5
2017-09-13T10:42:32.620Z,26.5
2017-09-13T10:43:28.818Z,26.5
2017-09-13T10:44:30.042Z,26.5
2017-09-13T10:45:28.603Z,26.5
2017-09-13T10:46:33.954Z,26.5
2017-09-13T10:47:29.738Z,26.6
2017-09-13T10:48:29.932Z,26.6
2017-09-13T10:49:29.596Z,26.6
2017-09-13T10:50:36.209Z,26.6
2017-09-13T10:51:31.763Z,26.7
2017-09-13T10:52:29.592Z,26.7
2017-09-13T10:53:29.497Z,26.8
2017-09-13T10:54:29.201Z,26.8
2017-09-13T10:55:32.642Z,26.8
2017-09-13T10:56:30.483Z,26.8
2017-09-13T10:57:29.625Z,26.8
2017-09-13T10:58:30.009Z,26.8
2017-09-13T10:59:30.415Z,26.8
2017-09-13T11:00:30.530Z,26.9
2017-09-13T11:01:33.054Z,26.9
2017-09-13T11:02:31.713Z,26.8
2017-09-13T11:03:33.424Z,26.9
2017-09-13T11:04:37.634Z,26.8
2017-09-13T11:05:31.518Z,26.8
2017-09-13T11:06:34.899Z,26.8
2017-09-13T11:07:34.554Z,26.8
2017-09-13T11:08:33.819Z,26.8
2017-09-13T11:09:30.021Z,26.9
2017-09-13T11:10:33.979Z,26.8
2017-09-13T11:11:33.930Z,26.9
2017-09-13T11:12:35.804Z,26.9
2017-09-13T11:13:30.616Z,26.9
2017-09-13T11:14:30.808Z,26.8
2017-09-13T11:15:35.557Z,26.8
2017-09-13T11:16:35.406Z,26.8
2017-09-13T11:17:32.049Z,26.8
2017-09-13T11:18:33.243Z,26.7
2017-09-13T11:19:33.914Z,26.7
2017-09-13T11:20:31.823Z,26.7
2017-09-13T11:21:32.526Z,26.7
2017-09-13T11:22:35.058Z,26.7
2017-09-13T11:23:31.187Z,26.6
2017-09-13T11:24:36.091Z,26.6
2017-09-13T11:25:34.314Z,26.6
2017-09-13T11:26:33.988Z,26.6
2017-09-13T11:27:34.130Z,26.6
2017-09-13T11:28:30.971Z,26.6
2017-09-13T11:29:36.799Z,26.6
2017-09-13T11:30:31.003Z,26.7
2017-09-13T11:31:31.679Z,26.7
2017-09-13T11:32:31.634Z,26.7
2017-09-13T11:33:33.685Z,26.7
2017-09-13T11:34:32.260Z,26.6
2017-09-13T11:35:34.083Z,26.7
2017-09-13T11:36:37.839Z,26.7
2017-09-13T11:37:32.401Z,26.7
2017-09-13T11:38:32.773Z,26.7
2017-09-13T11:39:33.286Z,26.7
2017-09-13T11:40:34.040Z,26.7
2017-09-13T11:41:32.405Z,26.7
2017-09-13T11:42:37.091Z,26.8
2017-09-13T11:43:31.620Z,26.7
2017-09-13T11:44:33.703Z,26.7
2017-09-13T11:45:34.955Z,26.7
2017-09-13T11:46:35.887Z,26.7
2017-09-13T11:47:35.638Z,26.7
2017-09-13T11:48:37.179Z,26.7
2017-09-13T11:49:31.942Z,26.7
2017-09-13T11:50:32.938Z,26.6
2017-09-13T11:51:37.349Z,26.7
2017-09-13T11:52:34.377Z,26.7
2017-09-13T11:53:37.639Z,26.7
2017-09-13T11:54:32.208Z,26.7
2017-09-13T11:55:38.208Z,26.7
2017-09-13T11:56:37.099Z,26.6
2017-09-13T11:57:33.982Z,26.6
2017-09-13T11:58:35.426Z,26.6
2017-09-13T11:59:37.775Z,26.6
2017-09-13T12:00:32.967Z,26.6
2017-09-13T12:01:32.989Z,26.6
2017-09-13T12:02:39.537Z,26.6
2017-09-13T12:03:33.372Z,26.6
2017-09-13T12:04:36.173Z,26.6
2017-09-13T12:05:36.398Z,26.6
2017-09-13T12:06:37.417Z,26.6
2017-09-13T12:07:34.734Z,26.6
2017-09-13T12:08:34.575Z,26.6
2017-09-13T12:09:38.212Z,26.6
2017-09-13T12:10:38.668Z,26.6
2017-09-13T12:11:33.951Z,26.6
2017-09-13T12:12:36.382Z,26.6
2017-09-13T12:13:40.180Z,26.6
2017-09-13T12:14:35.029Z,26.6
2017-09-13T12:15:35.087Z,26.6
2017-09-13T12:16:35.775Z,26.6
2017-09-13T12:17:34.933Z,26.6
2017-09-13T12:18:39.761Z,26.6
2017-09-13T12:19:41.365Z,26.7
2017-09-13T12:20:41.025Z,26.7
2017-09-13T12:21:37.395Z,26.7
2017-09-13T12:22:43.812Z,26.7
2017-09-13T12:23:42.865Z,26.8
2017-09-13T12:24:34.552Z,26.8
2017-09-13T12:25:40.738Z,26.8
2017-09-13T12:26:35.398Z,26.8
2017-09-13T12:27:33.979Z,26.8
2017-09-13T12:28:34.833Z,26.8
2017-09-13T12:29:35.462Z,26.9
2017-09-13T12:30:35.662Z,26.9
2017-09-13T12:31:37.033Z,26.9
2017-09-13T12:32:35.331Z,26.9
2017-09-13T12:33:35.025Z,26.9
2017-09-13T12:34:35.246Z,26.9
2017-09-13T12:35:35.311Z,26.8
2017-09-13T12:36:35.335Z,26.8
2017-09-13T12:37:35.697Z,26.8
2017-09-13T12:38:35.040Z,26.8
2017-09-13T12:39:37.972Z,26.8
2017-09-13T12:40:35.373Z,26.8
2017-09-13T12:41:36.535Z,26.8
2017-09-13T12:42:41.573Z,26.8
2017-09-13T12:43:39.972Z,26.8
2017-09-13T12:44:39.347Z,26.8
2017-09-13T12:45:38.529Z,26.8
2017-09-13T12:46:36.288Z,26.8
2017-09-13T12:47:43.378Z,26.8
2017-09-13T12:48:44.097Z,26.8
2017-09-13T12:49:37.770Z,26.8
2017-09-13T12:50:36.036Z,26.8
2017-09-13T12:51:36.795Z,26.8
2017-09-13T12:52:37.819Z,26.8
2017-09-13T12:53:42.199Z,26.8
2017-09-13T12:54:36.422Z,26.8
2017-09-13T12:55:42.036Z,26.8
2017-09-13T12:56:37.351Z,26.8
2017-09-13T12:57:36.120Z,26.8
2017-09-13T12:58:35.576Z,26.8
2017-09-13T12:59:36.244Z,26.9
2017-09-13T13:00:38.905Z,26.9
2017-09-13T13:01:40.383Z,26.9
2017-09-13T13:02:37.050Z,26.9
2017-09-13T13:03:40.814Z,27
2017-09-13T13:04:44.733Z,26.9
2017-09-13T13:05:42.594Z,27
2017-09-13T13:06:42.888Z,27
2017-09-13T13:07:36.566Z,27
2017-09-13T13:08:40.805Z,27
2017-09-13T13:09:44.018Z,27
2017-09-13T13:10:40.781Z,27
2017-09-13T13:11:42.815Z,27
2017-09-13T13:12:36.336Z,27
2017-09-13T13:13:36.688Z,27
2017-09-13T13:14:39.567Z,27
2017-09-13T13:15:39.247Z,27
2017-09-13T13:16:39.863Z,27
2017-09-13T13:17:41.531Z,27
2017-09-13T13:18:40.937Z,27
2017-09-13T13:19:41.109Z,27
2017-09-13T13:20:44.776Z,27
2017-09-13T13:21:38.983Z,27
2017-09-13T13:22:42.991Z,27
2017-09-13T13:23:36.892Z,27
2017-09-13T13:24:43.623Z,27
2017-09-13T13:25:39.087Z,27
2017-09-13T13:26:37.269Z,27
2017-09-13T13:27:36.943Z,27
2017-09-13T13:28:37.913Z,27
2017-09-13T13:29:37.093Z,27
2017-09-13T13:30:43.533Z,27
2017-09-13T13:31:41.061Z,27
2017-09-13T13:32:42.420Z,27
2017-09-13T13:33:42.252Z,27
2017-09-13T13:34:37.590Z,27